createdAt,value
2023-01-01T00:03:55.010Z,102848.81
2023-01-01T00:09:18.094Z,102852.31
2023-01-01T00:14:22.853Z,102855.84
2023-01-01T00:19:27.552Z,102851.72
2023-01-01T00:24:32.111Z,102872.38
2023-01-01T00:29:36.718Z,102879.44
2023-01-01T00:34:41.603Z,102892.47
2023-01-01T00:39:46.693Z,102904.66
2023-01-01T00:44:51.209Z,102890.28
2023-01-01T00:49:55.819Z,102896.47
2023-01-01T00:55:00.354Z,102891.47
2023-01-01T01:00:04.607Z,102905.31
2023-01-01T01:05:09.766Z,102900.28
2023-01-01T01:10:14.422Z,102915.84
2023-01-01T01:15:19.185Z,102911.63
2023-01-01T01:20:23.786Z,102913.44
2023-01-01T01:25:28.375Z,102916.97
2023-01-01T01:30:32.963Z,102920.50
2023-01-01T01:35:37.905Z,102917.13
2023-01-01T01:40:45.036Z,102918.03
2023-01-01T01:45:51.923Z,102968.78
2023-01-01T01:50:57.820Z,102931.84
2023-01-01T01:56:06.296Z,102981.72
2023-01-01T02:01:10.989Z,102937.00
2023-01-01T02:06:16.064Z,102936.09
2023-01-01T02:11:22.047Z,102931.78
2023-01-01T02:16:49.161Z,102925.72
2023-01-01T02:22:11.861Z,102917.91
2023-01-01T02:27:45.370Z,102923.00
2023-01-01T02:33:00.658Z,102912.59
2023-01-01T02:38:12.358Z,102912.47
2023-01-01T02:43:22.999Z,102912.41
2023-01-01T02:48:42.943Z,102909.72
2023-01-01T02:53:58.217Z,102908.72
2023-01-01T02:59:41.062Z,102906.88
2023-01-01T03:04:52.044Z,102896.38
2023-01-01T03:10:05.573Z,102888.47
2023-01-01T03:15:22.986Z,102878.81
2023-01-01T03:20:32.935Z,102865.72
2023-01-01T03:25:53.721Z,102854.28
2023-01-01T03:31:00.655Z,102848.97
2023-01-01T03:36:20.934Z,102828.16
2023-01-01T03:41:36.484Z,102829.78
2023-01-01T03:46:41.821Z,102811.56
2023-01-01T03:52:03.517Z,102809.72
2023-01-01T03:57:12.733Z,102851.06
2023-01-01T04:02:23.268Z,102803.38
2023-01-01T04:07:28.424Z,102793.72
2023-01-01T04:12:33.600Z,102792.59
2023-01-01T04:17:38.155Z,102791.50
2023-01-01T04:22:43.205Z,102783.44
2023-01-01T04:27:48.447Z,102770.16
2023-01-01T04:32:53.697Z,102767.25
2023-01-01T04:38:00.474Z,102760.03
2023-01-01T04:43:05.697Z,102743.38
2023-01-01T04:48:11.864Z,102751.78
2023-01-01T04:53:17.079Z,102735.16
2023-01-01T04:58:22.288Z,102744.53
2023-01-01T05:03:27.448Z,102720.13
2023-01-01T05:08:37.349Z,102713.88
2023-01-01T05:13:44.809Z,102696.34
2023-01-01T05:18:50.339Z,102683.19
2023-01-01T05:24:00.820Z,102665.69
2023-01-01T05:29:13.469Z,102665.56
2023-01-01T05:34:21.033Z,102664.56
2023-01-01T05:39:26.398Z,102650.66
2023-01-01T05:44:31.572Z,102648.09
2023-01-01T05:49:37.853Z,102641.06
2023-01-01T05:54:43.182Z,102642.63
2023-01-01T05:59:48.551Z,102649.84
2023-01-01T06:04:55.453Z,102641.75
2023-01-01T06:10:00.400Z,102639.06
2023-01-01T06:15:05.272Z,102635.50
2023-01-01T06:20:11.040Z,102633.75
2023-01-01T06:25:15.568Z,102633.75
2023-01-01T06:30:21.565Z,102628.53
2023-01-01T06:35:27.781Z,102628.66
2023-01-01T06:40:33.177Z,102621.72
2023-01-01T06:45:37.938Z,102618.25
2023-01-01T06:50:43.129Z,102620.47
2023-01-01T06:55:55.091Z,102627.34
2023-01-01T07:01:15.128Z,102625.75
2023-01-01T07:06:20.559Z,102633.69
2023-01-01T07:11:27.063Z,102639.09
2023-01-01T07:16:35.051Z,102636.66
2023-01-01T07:21:53.033Z,102633.47
2023-01-01T07:26:58.291Z,102631.97
2023-01-01T07:32:03.590Z,102632.25
2023-01-01T07:37:09.117Z,102636.63
2023-01-01T07:42:14.085Z,102641.13
2023-01-01T07:47:28.949Z,102637.81
2023-01-01T07:52:34.300Z,102649.16
2023-01-01T07:57:39.811Z,102647.56
2023-01-01T08:02:45.936Z,102658.97
2023-01-01T08:07:52.930Z,102665.16
2023-01-01T08:13:06.335Z,102682.59
2023-01-01T08:18:11.922Z,102680.19
2023-01-01T08:23:17.124Z,102687.38
2023-01-01T08:28:22.456Z,102693.66
2023-01-01T08:33:27.657Z,102702.53
2023-01-01T08:38:32.893Z,102708.84
2023-01-01T08:43:38.101Z,102721.19
2023-01-01T08:48:43.133Z,102717.97
2023-01-01T08:53:51.513Z,102719.94
2023-01-01T08:59:03.585Z,102765.19
2023-01-01T09:04:15.744Z,102739.44
2023-01-01T09:09:25.643Z,102745.75
2023-01-01T09:14:38.123Z,102757.19
2023-01-01T09:19:43.704Z,102780.75
2023-01-01T09:24:48.723Z,102779.19
2023-01-01T09:29:54.280Z,102797.53
2023-01-01T09:34:59.255Z,102799.44
2023-01-01T09:40:06.687Z,102807.31
2023-01-01T09:45:34.466Z,102828.22
2023-01-01T09:50:45.992Z,102824.06
2023-01-01T09:56:00.836Z,102828.47
2023-01-01T10:01:19.758Z,102836.38
2023-01-01T10:06:35.660Z,102848.53
2023-01-01T10:12:05.748Z,102857.28
2023-01-01T10:17:43.457Z,102863.44
2023-01-01T10:22:49.928Z,102864.38
2023-01-01T10:28:03.859Z,102910.19
2023-01-01T10:33:15.187Z,102866.25
2023-01-01T10:38:28.119Z,102865.44
2023-01-01T10:43:32.848Z,102866.34
2023-01-01T10:48:37.533Z,102866.38
2023-01-01T10:54:00.183Z,102881.09
2023-01-01T10:59:04.984Z,102877.72
2023-01-01T11:04:15.904Z,102890.69
2023-01-01T11:09:30.454Z,102894.19
2023-01-01T11:15:04.599Z,102902.81
2023-01-01T11:20:19.028Z,102897.72
2023-01-01T11:25:35.949Z,102908.06
2023-01-01T11:30:41.888Z,102907.16
2023-01-01T11:35:56.930Z,102937.38
2023-01-01T11:41:09.348Z,102918.41
2023-01-01T11:46:24.885Z,102929.69
2023-01-01T11:51:36.447Z,102931.47
2023-01-01T11:56:42.164Z,102972.91
2023-01-01T12:01:55.560Z,102933.31
2023-01-01T12:07:12.685Z,102935.94
2023-01-01T12:12:49.135Z,102940.31
2023-01-01T12:18:28.572Z,102948.09
2023-01-01T12:23:37.615Z,103011.84
2023-01-01T12:28:53.306Z,102947.28
2023-01-01T12:34:07.009Z,102948.13
2023-01-01T12:39:47.270Z,102953.28
2023-01-01T12:45:03.037Z,102955.03
2023-01-01T12:50:11.738Z,102958.47
2023-01-01T12:55:47.961Z,102962.78
2023-01-01T13:01:00.758Z,102961.88
2023-01-01T13:06:08.595Z,102969.66
2023-01-01T13:11:16.160Z,103011.84
2023-01-01T13:16:53.804Z,102992.06
2023-01-01T13:22:00.738Z,102991.22
2023-01-01T13:27:12.544Z,103035.91
2023-01-01T13:32:19.313Z,103042.75
2023-01-01T13:37:29.574Z,102990.31
2023-01-01T13:43:00.707Z,102996.28
2023-01-01T13:48:42.221Z,102998.84
2023-01-01T13:53:56.293Z,103001.41
2023-01-01T13:59:14.608Z,103006.56
2023-01-01T14:04:45.024Z,103005.69
2023-01-01T14:09:53.284Z,103004.78
2023-01-01T14:14:58.666Z,103006.50
2023-01-01T14:20:10.449Z,103013.34
2023-01-01T14:25:32.254Z,103018.53
2023-01-01T14:30:37.944Z,103015.09
2023-01-01T14:35:54.858Z,103021.13
2023-01-01T14:41:24.860Z,103025.44
2023-01-01T14:46:32.130Z,103033.19
2023-01-01T14:51:44.331Z,103031.44
2023-01-01T14:56:51.643Z,103046.88
2023-01-01T15:02:15.859Z,103049.44
2023-01-01T15:07:32.039Z,103051.13
2023-01-01T15:12:38.833Z,103051.06
2023-01-01T15:17:49.618Z,103049.28
2023-01-01T15:22:56.571Z,103074.16
2023-01-01T15:28:02.287Z,103071.53
2023-01-01T15:33:16.817Z,103071.50
2023-01-01T15:38:32.318Z,103079.25
2023-01-01T15:43:39.270Z,103073.25
2023-01-01T15:48:57.947Z,103074.94
2023-01-01T15:54:10.010Z,103070.66
2023-01-01T15:59:30.040Z,103073.25
2023-01-01T16:04:35.280Z,103075.84
2023-01-01T16:09:41.450Z,103069.06
2023-01-01T16:14:49.634Z,103065.63
2023-01-01T16:20:03.193Z,103069.00
2023-01-01T16:25:34.786Z,103075.00
2023-01-01T16:30:39.739Z,103086.13
2023-01-01T16:35:45.805Z,103084.44
2023-01-01T16:40:56.737Z,103083.56
2023-01-01T16:46:02.516Z,103097.31
2023-01-01T16:51:11.959Z,103095.56
2023-01-01T16:56:17.408Z,103098.94
2023-01-01T17:01:23.914Z,103083.50
2023-01-01T17:06:29.254Z,103082.69
2023-01-01T17:11:35.435Z,103079.22
2023-01-01T17:16:41.198Z,103076.63
2023-01-01T17:21:47.785Z,103075.66
2023-01-01T17:26:55.367Z,103067.91
2023-01-01T17:32:00.638Z,103069.56
2023-01-01T17:37:05.949Z,103060.97
2023-01-01T17:42:10.922Z,103066.06
2023-01-01T17:47:17.055Z,103053.97
2023-01-01T17:52:22.099Z,103048.78
2023-01-01T17:57:27.430Z,103056.53
2023-01-01T18:02:32.867Z,103055.72
2023-01-01T18:07:37.998Z,103056.63
2023-01-01T18:12:42.749Z,103079.00
2023-01-01T18:17:47.506Z,103062.72
2023-01-01T18:22:55.707Z,103063.59
2023-01-01T18:28:00.396Z,103072.16
2023-01-01T18:33:05.076Z,103063.50
2023-01-01T18:38:13.903Z,103058.31
2023-01-01T18:43:26.355Z,103058.28
2023-01-01T18:48:30.971Z,103049.69
2023-01-01T18:53:35.558Z,103062.56
2023-01-01T18:58:44.019Z,103091.72
2023-01-01T19:03:52.569Z,103054.00
2023-01-01T19:09:26.364Z,103049.72
2023-01-01T19:14:33.392Z,103042.91
2023-01-01T19:19:43.183Z,103051.50
2023-01-01T19:24:47.781Z,103046.41
2023-01-01T19:29:53.908Z,103038.72
2023-01-01T19:34:58.489Z,103043.88
2023-01-01T19:40:03.087Z,103026.75
2023-01-01T19:45:09.525Z,103028.41
2023-01-01T19:50:14.456Z,103029.22
2023-01-01T19:55:20.123Z,103018.06
2023-01-01T20:00:28.789Z,103068.63
2023-01-01T20:05:35.439Z,103026.59
2023-01-01T20:10:40.141Z,103014.50
2023-01-01T20:15:46.838Z,103011.06
2023-01-01T20:21:09.885Z,103002.50
2023-01-01T20:26:15.013Z,103011.13
2023-01-01T20:31:19.583Z,103020.59
2023-01-01T20:36:42.198Z,103019.75
2023-01-01T20:41:46.818Z,103076.34
2023-01-01T20:46:51.522Z,103035.19
2023-01-01T20:51:56.136Z,103029.13
2023-01-01T20:57:00.900Z,103039.34
2023-01-01T21:02:10.807Z,103042.69
2023-01-01T21:07:15.612Z,103043.41
2023-01-01T21:12:20.189Z,103081.06
2023-01-01T21:17:26.112Z,103027.84
2023-01-01T21:22:30.786Z,103030.38
2023-01-01T21:27:36.252Z,103014.03
2023-01-01T21:32:49.390Z,103019.22
2023-01-01T21:37:58.392Z,103022.66
2023-01-01T21:43:08.200Z,103017.50
2023-01-01T21:48:12.767Z,103029.47
2023-01-01T21:53:19.931Z,103032.91
2023-01-01T21:59:00.943Z,103041.44
2023-01-01T22:04:11.631Z,103045.69
2023-01-01T22:09:56.274Z,103051.56
2023-01-01T22:15:42.679Z,103054.91
2023-01-01T22:20:48.009Z,103059.16
2023-01-01T22:25:54.407Z,103119.84
2023-01-01T22:31:03.781Z,103082.97
2023-01-01T22:36:32.684Z,103082.84
2023-01-01T22:41:37.463Z,103099.03
2023-01-01T22:46:43.617Z,103099.94
2023-01-01T22:51:52.433Z,103108.47
2023-01-01T22:56:57.062Z,103117.00
2023-01-01T23:02:01.814Z,103122.88
2023-01-01T23:07:08.032Z,103151.13
2023-01-01T23:12:12.747Z,103155.47
2023-01-01T23:17:17.826Z,103161.38
2023-01-01T23:22:22.047Z,103156.25
2023-01-01T23:27:27.062Z,103163.06
2023-01-01T23:32:31.327Z,103163.13
2023-01-01T23:37:36.173Z,103163.03
2023-01-01T23:42:40.820Z,103170.00
2023-01-01T23:47:45.649Z,103155.50
2023-01-01T23:52:50.401Z,103151.19
2023-01-01T23:57:54.931Z,103157.19
